createdAt,value
2023-08-17T00:01:59.153Z,23.11
2023-08-17T00:05:03.029Z,22.97
2023-08-17T00:08:07.090Z,23.03
2023-08-17T00:11:10.356Z,23.03
2023-08-17T00:14:13.976Z,23.12
2023-08-17T00:17:16.756Z,23.03
2023-08-17T00:20:20.445Z,23.09
2023-08-17T00:23:24.272Z,23.11
2023-08-17T00:26:27.304Z,23.03
2023-08-17T00:29:30.702Z,23.06
2023-08-17T00:32:33.633Z,22.94
2023-08-17T00:35:36.544Z,22.97
2023-08-17T00:38:39.449Z,23.11
2023-08-17T00:41:42.510Z,23.16
2023-08-17T00:44:46.077Z,23.24
2023-08-17T00:47:49.610Z,23.14
2023-08-17T00:50:54.653Z,23.20
2023-08-17T00:54:00.754Z,23.22
2023-08-17T00:57:07.878Z,23.37
2023-08-17T01:00:16.376Z,23.39
2023-08-17T01:03:24.615Z,23.23
2023-08-17T01:06:27.667Z,23.24
2023-08-17T01:09:33.669Z,23.19
2023-08-17T01:13:06.657Z,23.12
2023-08-17T01:16:16.153Z,22.94
2023-08-17T01:19:27.251Z,23.07
2023-08-17T01:22:32.117Z,23.07
2023-08-17T01:25:38.138Z,22.99
2023-08-17T01:28:40.951Z,22.95
2023-08-17T01:31:55.316Z,22.82
2023-08-17T01:35:08.837Z,22.79
2023-08-17T01:38:17.828Z,22.91
2023-08-17T01:41:23.786Z,23.09
2023-08-17T01:44:27.305Z,22.98
2023-08-17T01:47:31.831Z,23.13
2023-08-17T01:50:34.742Z,22.81
2023-08-17T01:53:37.748Z,22.69
2023-08-17T01:56:41.036Z,23.04
2023-08-17T01:59:45.021Z,22.83
2023-08-17T02:02:48.046Z,23.00
2023-08-17T02:05:51.633Z,23.16
2023-08-17T02:08:54.534Z,22.96
2023-08-17T02:12:00.049Z,23.17
2023-08-17T02:15:03.500Z,23.16
2023-08-17T02:18:06.461Z,22.84
2023-08-17T02:21:10.601Z,22.92
2023-08-17T02:24:16.235Z,22.96
2023-08-17T02:27:19.133Z,23.05
2023-08-17T02:30:22.152Z,23.20
2023-08-17T02:33:25.761Z,23.33
2023-08-17T02:36:28.854Z,23.29
2023-08-17T02:39:32.762Z,23.26
2023-08-17T02:42:35.767Z,23.08
2023-08-17T02:45:38.608Z,22.98
2023-08-17T02:48:42.307Z,23.03
2023-08-17T02:51:45.588Z,22.98
2023-08-17T02:54:48.641Z,22.90
2023-08-17T02:57:52.148Z,22.80
2023-08-17T03:00:55.592Z,23.03
2023-08-17T03:03:59.175Z,23.01
2023-08-17T03:07:02.895Z,23.16
2023-08-17T03:10:07.126Z,23.10
2023-08-17T03:13:10.077Z,23.03
2023-08-17T03:16:13.020Z,23.05
2023-08-17T03:19:16.740Z,23.14
2023-08-17T03:22:21.276Z,23.16
2023-08-17T03:25:25.012Z,23.07
2023-08-17T03:28:28.733Z,23.00
2023-08-17T03:31:32.718Z,22.56
2023-08-17T03:34:38.481Z,22.58
2023-08-17T03:37:43.727Z,22.55
2023-08-17T03:40:50.800Z,22.79
2023-08-17T03:43:54.725Z,22.96
2023-08-17T03:46:58.223Z,22.82
2023-08-17T03:50:01.084Z,22.90
2023-08-17T03:53:04.196Z,22.78
2023-08-17T03:56:07.187Z,22.66
2023-08-17T03:59:10.694Z,22.78
2023-08-17T04:02:14.254Z,22.77
2023-08-17T04:05:18.409Z,22.80
2023-08-17T04:08:21.384Z,22.67
2023-08-17T04:11:24.379Z,22.62
2023-08-17T04:14:28.272Z,22.71
2023-08-17T04:17:32.399Z,22.84
2023-08-17T04:20:36.258Z,22.70
2023-08-17T04:23:40.483Z,22.97
2023-08-17T04:26:43.410Z,23.05
2023-08-17T04:29:47.216Z,23.05
2023-08-17T04:32:53.834Z,23.04
2023-08-17T04:35:57.199Z,23.02
2023-08-17T04:39:00.401Z,22.97
2023-08-17T04:42:05.212Z,22.96
2023-08-17T04:45:11.034Z,23.06
2023-08-17T04:48:17.481Z,23.12
2023-08-17T04:51:23.231Z,23.15
2023-08-17T04:54:26.826Z,23.08
2023-08-17T04:57:30.580Z,22.92
2023-08-17T05:00:34.796Z,23.06
2023-08-17T05:03:39.424Z,23.10
2023-08-17T05:06:44.270Z,22.97
2023-08-17T05:09:48.436Z,23.12
2023-08-17T05:12:51.478Z,23.18
2023-08-17T05:15:55.440Z,23.18
2023-08-17T05:19:00.690Z,23.32
2023-08-17T05:22:05.409Z,23.37
2023-08-17T05:25:09.253Z,23.47
2023-08-17T05:28:18.023Z,23.54
2023-08-17T05:31:22.213Z,23.68
2023-08-17T05:34:27.422Z,23.72
2023-08-17T05:37:31.356Z,23.59
2023-08-17T05:40:34.483Z,23.84
2023-08-17T05:43:38.040Z,23.77
2023-08-17T05:46:42.077Z,24.02
2023-08-17T05:49:45.256Z,24.16
2023-08-17T05:52:48.190Z,24.34
2023-08-17T05:55:51.209Z,24.41
2023-08-17T05:58:54.201Z,24.50
2023-08-17T06:01:57.144Z,24.55
2023-08-17T06:05:00.808Z,24.63
2023-08-17T06:08:04.667Z,24.52
2023-08-17T06:11:08.119Z,24.56
2023-08-17T06:14:12.072Z,24.44
2023-08-17T06:17:15.815Z,24.37
2023-08-17T06:20:19.811Z,24.36
2023-08-17T06:23:26.536Z,24.46
2023-08-17T06:26:30.165Z,24.44
2023-08-17T06:29:33.107Z,24.39
2023-08-17T06:32:36.112Z,24.22
2023-08-17T06:35:38.931Z,24.44
2023-08-17T06:38:43.571Z,24.52
2023-08-17T06:41:47.338Z,24.67
2023-08-17T06:44:51.096Z,24.75
2023-08-17T06:47:55.132Z,24.98
2023-08-17T06:50:58.116Z,25.02
2023-08-17T06:54:01.249Z,25.05
2023-08-17T06:57:04.378Z,25.13
2023-08-17T07:00:08.973Z,25.31
2023-08-17T07:03:14.772Z,25.39
2023-08-17T07:06:19.105Z,25.44
2023-08-17T07:09:22.363Z,25.40
2023-08-17T07:12:25.540Z,25.37
2023-08-17T07:15:28.436Z,25.35
2023-08-17T07:18:32.065Z,25.42
2023-08-17T07:21:35.490Z,25.41
2023-08-17T07:24:39.405Z,25.36
2023-08-17T07:27:43.443Z,25.25
2023-08-17T07:30:46.636Z,25.18
2023-08-17T07:33:49.965Z,25.33
2023-08-17T07:36:52.961Z,25.50
2023-08-17T07:39:56.040Z,25.53
2023-08-17T07:42:58.979Z,25.52
2023-08-17T07:46:01.986Z,25.93
2023-08-17T07:49:06.063Z,26.16
2023-08-17T07:52:11.781Z,26.28
2023-08-17T07:55:15.690Z,26.57
2023-08-17T07:58:18.646Z,26.70
2023-08-17T08:01:22.176Z,26.86
2023-08-17T08:04:25.329Z,26.92
2023-08-17T08:07:28.503Z,26.56
2023-08-17T08:10:31.764Z,26.96
2023-08-17T08:13:34.696Z,27.03
2023-08-17T08:16:38.103Z,26.93
2023-08-17T08:19:40.968Z,27.71
2023-08-17T08:22:44.785Z,27.17
2023-08-17T08:25:48.720Z,27.04
2023-08-17T08:28:52.175Z,27.56
2023-08-17T08:31:55.092Z,27.50
2023-08-17T08:34:58.738Z,27.35
2023-08-17T08:38:02.223Z,27.38
2023-08-17T08:41:06.687Z,27.34
2023-08-17T08:44:09.809Z,28.11
2023-08-17T08:47:14.728Z,27.63
2023-08-17T08:50:23.374Z,27.52
2023-08-17T08:53:36.770Z,27.80
2023-08-17T08:59:50.935Z,27.42
2023-08-17T09:02:55.395Z,27.54
2023-08-17T09:05:59.239Z,27.59
2023-08-17T09:09:03.871Z,27.56
2023-08-17T09:12:11.015Z,27.66
2023-08-17T09:15:14.064Z,27.45
2023-08-17T09:18:18.857Z,27.16
2023-08-17T09:21:24.653Z,27.21
2023-08-17T09:24:38.258Z,27.26
2023-08-17T09:27:42.697Z,26.96
2023-08-17T09:31:05.022Z,27.23
2023-08-17T09:34:10.617Z,27.38
2023-08-17T09:37:14.795Z,27.52
2023-08-17T09:40:22.380Z,27.85
2023-08-17T09:43:30.282Z,27.97
2023-08-17T09:46:34.548Z,28.22
2023-08-17T09:49:37.549Z,28.16
2023-08-17T09:52:41.183Z,28.11
2023-08-17T09:55:45.911Z,28.13
2023-08-17T09:58:49.897Z,27.90
2023-08-17T10:01:57.026Z,28.45
2023-08-17T10:05:01.760Z,28.36
2023-08-17T10:08:08.009Z,28.68
2023-08-17T10:11:13.405Z,28.36
2023-08-17T10:14:23.325Z,28.44
2023-08-17T10:17:29.402Z,28.95
2023-08-17T10:20:35.640Z,28.51
2023-08-17T10:23:42.778Z,28.08
2023-08-17T10:26:47.487Z,28.23
2023-08-17T10:29:53.318Z,27.87
2023-08-17T10:32:57.921Z,28.62
2023-08-17T10:36:02.569Z,28.27
2023-08-17T10:39:27.005Z,28.38
2023-08-17T10:42:37.909Z,28.23
2023-08-17T10:45:41.460Z,28.21
2023-08-17T10:48:45.616Z,28.01
2023-08-17T10:52:03.672Z,28.04
2023-08-17T10:55:11.421Z,28.15
2023-08-17T10:58:16.175Z,28.17
2023-08-17T11:01:38.096Z,28.29
2023-08-17T11:04:42.002Z,28.36
2023-08-17T11:07:46.196Z,28.63
2023-08-17T11:11:08.230Z,28.60
2023-08-17T11:14:11.335Z,28.39
2023-08-17T11:17:14.906Z,28.14
2023-08-17T11:20:18.066Z,28.23
2023-08-17T11:23:26.058Z,28.15
2023-08-17T11:26:35.482Z,28.17
2023-08-17T11:32:53.788Z,28.19
2023-08-17T11:36:03.216Z,28.21
2023-08-17T11:39:10.462Z,28.81
2023-08-17T11:42:20.166Z,28.83
2023-08-17T11:45:27.593Z,28.78
2023-08-17T11:48:36.681Z,28.51
2023-08-17T11:51:43.131Z,28.61
2023-08-17T11:54:46.915Z,28.75
2023-08-17T11:57:55.950Z,28.81
2023-08-17T12:00:59.001Z,28.76
2023-08-17T12:04:06.043Z,28.58
2023-08-17T12:07:11.024Z,28.88
2023-08-17T12:10:14.533Z,29.01
2023-08-17T12:13:17.541Z,28.98
2023-08-17T12:16:22.289Z,29.06
2023-08-17T12:19:28.830Z,29.46
2023-08-17T12:22:31.832Z,29.72
2023-08-17T12:25:35.558Z,29.67
2023-08-17T12:28:41.521Z,29.57
2023-08-17T12:31:45.795Z,29.92
2023-08-17T12:34:49.688Z,30.75
2023-08-17T12:37:55.124Z,31.11
2023-08-17T12:41:00.002Z,31.87
2023-08-17T12:44:03.619Z,31.97
2023-08-17T12:47:07.588Z,31.80
2023-08-17T12:50:11.528Z,31.42
2023-08-17T12:53:14.433Z,31.78
2023-08-17T12:56:17.598Z,32.99
2023-08-17T12:59:21.069Z,32.59
2023-08-17T13:02:25.259Z,31.94
2023-08-17T13:05:30.177Z,32.67
2023-08-17T13:08:33.272Z,34.11
2023-08-17T13:11:37.141Z,33.47
2023-08-17T13:14:40.498Z,34.29
2023-08-17T13:17:47.337Z,34.73
2023-08-17T13:20:50.380Z,34.71
2023-08-17T13:23:53.279Z,34.08
2023-08-17T13:26:58.777Z,33.86
2023-08-17T13:30:02.820Z,33.63
2023-08-17T13:33:07.674Z,32.72
2023-08-17T13:36:10.694Z,31.44
2023-08-17T13:39:14.639Z,30.71
2023-08-17T13:42:18.561Z,30.24
2023-08-17T13:45:22.308Z,32.30
2023-08-17T13:48:26.075Z,32.87
2023-08-17T13:51:29.740Z,32.07
2023-08-17T13:54:33.626Z,31.22
2023-08-17T13:57:37.391Z,31.36
2023-08-17T14:00:40.374Z,30.35
2023-08-17T14:03:44.556Z,30.10
2023-08-17T14:06:48.205Z,29.91
2023-08-17T14:10:05.525Z,29.76
2023-08-17T14:13:11.002Z,30.05
2023-08-17T14:16:14.734Z,30.34
2023-08-17T14:19:18.570Z,30.25
2023-08-17T14:22:21.416Z,30.12
2023-08-17T14:25:24.483Z,29.81
2023-08-17T14:28:27.898Z,29.32
2023-08-17T14:31:31.624Z,28.87
2023-08-17T14:34:34.923Z,28.40
2023-08-17T14:37:38.721Z,28.32
2023-08-17T14:40:46.279Z,28.27
2023-08-17T14:43:51.379Z,28.17
2023-08-17T14:46:54.256Z,28.26
2023-08-17T14:49:57.322Z,28.37
2023-08-17T14:53:00.321Z,28.30
2023-08-17T14:56:03.338Z,28.31
2023-08-17T14:59:10.447Z,28.03
2023-08-17T15:02:15.183Z,28.01
2023-08-17T15:05:18.231Z,27.74
2023-08-17T15:08:21.358Z,27.44
2023-08-17T15:11:24.643Z,27.20
2023-08-17T15:14:27.754Z,26.96
2023-08-17T15:17:30.671Z,26.53
2023-08-17T15:20:33.736Z,26.57
2023-08-17T15:23:37.335Z,26.57
2023-08-17T15:26:40.853Z,26.49
2023-08-17T15:29:43.910Z,26.58
2023-08-17T15:32:47.972Z,26.57
2023-08-17T15:35:51.750Z,26.59
2023-08-17T15:38:55.200Z,26.75
2023-08-17T15:41:59.494Z,26.79
2023-08-17T15:45:02.515Z,26.80
2023-08-17T15:48:05.619Z,26.72
2023-08-17T15:51:08.571Z,26.66
2023-08-17T15:54:14.382Z,26.66
2023-08-17T15:57:19.695Z,26.49
2023-08-17T16:00:23.714Z,26.31
2023-08-17T16:03:27.313Z,26.63
2023-08-17T16:06:30.821Z,26.66
2023-08-17T16:09:33.874Z,26.56
2023-08-17T16:12:42.924Z,26.56
2023-08-17T16:15:53.154Z,26.67
2023-08-17T16:18:56.283Z,26.68
2023-08-17T16:21:59.353Z,26.67
2023-08-17T16:25:02.968Z,26.68
2023-08-17T16:28:08.963Z,26.71
2023-08-17T16:31:14.160Z,26.59
2023-08-17T16:34:19.913Z,26.68
2023-08-17T16:37:23.041Z,26.65
2023-08-17T16:40:37.872Z,26.59
2023-08-17T16:43:42.074Z,26.62
2023-08-17T16:46:45.900Z,26.61
2023-08-17T16:49:48.840Z,26.52
2023-08-17T16:52:51.822Z,26.70
2023-08-17T16:55:55.837Z,26.59
2023-08-17T16:59:02.021Z,26.63
2023-08-17T17:02:07.015Z,26.67
2023-08-17T17:05:10.418Z,26.48
2023-08-17T17:08:13.371Z,26.36
2023-08-17T17:11:16.340Z,26.27
2023-08-17T17:14:19.563Z,26.35
2023-08-17T17:17:22.642Z,26.13
2023-08-17T17:20:25.718Z,25.85
2023-08-17T17:23:28.716Z,25.88
2023-08-17T17:26:31.603Z,25.92
2023-08-17T17:29:35.451Z,25.89
2023-08-17T17:32:38.526Z,25.80
2023-08-17T17:35:42.418Z,25.76
2023-08-17T17:38:46.083Z,25.73
2023-08-17T17:41:49.251Z,25.68
2023-08-17T17:44:52.292Z,25.45
2023-08-17T17:47:55.948Z,25.57
2023-08-17T17:50:58.860Z,25.42
2023-08-17T17:54:01.778Z,25.51
2023-08-17T17:57:06.072Z,25.44
2023-08-17T18:00:11.399Z,25.52
2023-08-17T18:03:19.706Z,25.52
2023-08-17T18:06:23.715Z,25.37
2023-08-17T18:09:27.751Z,25.25
2023-08-17T18:12:31.677Z,25.34
2023-08-17T18:15:36.686Z,25.18
2023-08-17T18:18:40.000Z,25.10
2023-08-17T18:21:43.457Z,25.10
2023-08-17T18:24:46.724Z,25.00
2023-08-17T18:27:49.971Z,25.04
2023-08-17T18:30:53.720Z,24.99
2023-08-17T18:33:57.708Z,25.04
2023-08-17T18:37:03.865Z,25.15
2023-08-17T18:40:08.092Z,24.99
2023-08-17T18:43:12.061Z,24.94
2023-08-17T18:46:15.292Z,24.85
2023-08-17T18:49:18.304Z,24.89
2023-08-17T18:52:21.183Z,24.77
2023-08-17T18:55:24.841Z,24.76
2023-08-17T18:58:28.484Z,24.81
2023-08-17T19:01:32.658Z,24.78
2023-08-17T19:04:36.748Z,24.90
2023-08-17T19:07:40.676Z,24.92
2023-08-17T19:10:43.657Z,24.92
2023-08-17T19:13:46.564Z,24.93
2023-08-17T19:16:49.921Z,25.01
2023-08-17T19:19:53.326Z,24.93
2023-08-17T19:22:57.131Z,24.93
2023-08-17T19:26:00.713Z,24.87
2023-08-17T19:29:04.040Z,24.87
2023-08-17T19:32:07.686Z,24.91
2023-08-17T19:35:11.188Z,24.84
2023-08-17T19:38:15.416Z,24.87
2023-08-17T19:41:19.146Z,24.95
2023-08-17T19:44:22.628Z,24.93
2023-08-17T19:47:25.666Z,24.90
2023-08-17T19:50:29.796Z,24.89
2023-08-17T19:53:32.747Z,24.88
2023-08-17T19:56:36.549Z,24.77
2023-08-17T19:59:40.248Z,24.73
2023-08-17T20:02:44.201Z,24.67
2023-08-17T20:05:48.338Z,24.65
2023-08-17T20:08:51.624Z,24.66
2023-08-17T20:11:56.023Z,24.59
2023-08-17T20:15:00.182Z,24.57
2023-08-17T20:18:03.577Z,24.58
2023-08-17T20:21:07.460Z,24.63
2023-08-17T20:24:11.240Z,24.60
2023-08-17T20:27:15.198Z,24.63
2023-08-17T20:30:18.756Z,24.64
2023-08-17T20:33:23.704Z,24.64
2023-08-17T20:36:27.286Z,24.63
2023-08-17T20:39:31.175Z,24.62
2023-08-17T20:42:34.027Z,24.45
2023-08-17T20:45:41.598Z,24.38
2023-08-17T20:48:44.608Z,24.27
2023-08-17T20:51:49.370Z,24.31
2023-08-17T20:54:53.280Z,24.40
2023-08-17T20:57:58.810Z,24.11
2023-08-17T21:01:01.985Z,24.22
2023-08-17T21:04:05.921Z,24.23
2023-08-17T21:07:08.959Z,24.38
2023-08-17T21:10:12.750Z,24.28
2023-08-17T21:13:16.215Z,24.09
2023-08-17T21:16:19.116Z,24.27
2023-08-17T21:19:22.041Z,24.29
2023-08-17T21:22:26.534Z,24.32
2023-08-17T21:25:30.301Z,24.16
2023-08-17T21:28:33.242Z,24.25
2023-08-17T21:31:36.359Z,24.17
2023-08-17T21:34:39.885Z,24.11
2023-08-17T21:37:44.373Z,24.09
2023-08-17T21:40:47.500Z,24.07
2023-08-17T21:43:53.396Z,24.06
2023-08-17T21:46:57.865Z,24.07
2023-08-17T21:50:01.328Z,24.07
2023-08-17T21:53:04.418Z,24.13
2023-08-17T21:56:07.289Z,24.01
2023-08-17T21:59:10.292Z,24.00
2023-08-17T22:02:13.183Z,23.94
2023-08-17T22:05:16.173Z,24.02
2023-08-17T22:08:19.870Z,24.09
2023-08-17T22:11:23.480Z,24.08
2023-08-17T22:14:27.361Z,24.05
2023-08-17T22:17:31.253Z,24.09
2023-08-17T22:20:36.027Z,24.06
2023-08-17T22:23:39.092Z,24.09
2023-08-17T22:26:42.795Z,24.14
2023-08-17T22:29:45.803Z,24.04
2023-08-17T22:32:49.369Z,24.00
2023-08-17T22:35:52.871Z,24.12
2023-08-17T22:38:55.766Z,24.10
2023-08-17T22:41:58.890Z,24.09
2023-08-17T22:45:01.663Z,24.06
2023-08-17T22:48:05.674Z,23.99
2023-08-17T22:51:10.455Z,23.99
2023-08-17T22:54:14.086Z,23.72
2023-08-17T22:57:17.387Z,23.73
2023-08-17T23:00:20.681Z,23.69
2023-08-17T23:03:23.791Z,23.75
2023-08-17T23:06:27.534Z,23.72
2023-08-17T23:09:30.330Z,23.76
2023-08-17T23:12:33.860Z,23.74
2023-08-17T23:15:36.645Z,23.74
2023-08-17T23:18:39.579Z,23.75
2023-08-17T23:21:42.428Z,23.70
2023-08-17T23:24:46.088Z,23.77
2023-08-17T23:27:48.942Z,23.70
2023-08-17T23:30:52.219Z,23.60
2023-08-17T23:33:55.092Z,23.69
2023-08-17T23:36:58.843Z,23.75
2023-08-17T23:40:01.772Z,23.46
2023-08-17T23:43:05.451Z,23.46
2023-08-17T23:46:09.478Z,23.59
2023-08-17T23:49:12.783Z,23.55
2023-08-17T23:52:15.667Z,23.46
2023-08-17T23:55:19.599Z,23.69
2023-08-17T23:58:23.767Z,23.61
